createdAt,value
2017-06-05T00:05:43.537Z,6.17
2017-06-05T00:08:12.522Z,18.63
2017-06-05T00:10:41.528Z,18.10
2017-06-05T00:13:18.161Z,5.70
2017-06-05T00:15:46.390Z,16.13
2017-06-05T00:18:14.640Z,22.20
2017-06-05T00:20:43.657Z,6.70
2017-06-05T00:23:11.883Z,5.53
2017-06-05T00:25:40.105Z,5.40
2017-06-05T00:28:08.368Z,5.60
2017-06-05T00:30:36.583Z,5.93
2017-06-05T00:33:05.518Z,14.87
2017-06-05T00:35:34.548Z,21.47
2017-06-05T00:38:02.769Z,9.47
2017-06-05T00:40:30.998Z,11.57
2017-06-05T00:42:59.265Z,25.03
2017-06-05T00:45:27.495Z,30.70
2017-06-05T00:47:55.722Z,19.07
2017-06-05T00:50:24.082Z,20.00
2017-06-05T00:55:42.813Z,26.27
2017-06-05T00:58:11.049Z,25.27
2017-06-05T01:00:39.286Z,26.70
2017-06-05T01:03:07.646Z,24.50
2017-06-05T01:05:36.648Z,24.10
2017-06-05T01:08:18.168Z,20.67
2017-06-05T01:10:46.428Z,20.63
2017-06-05T01:13:18.248Z,21.17
2017-06-05T01:15:46.473Z,20.47
2017-06-05T01:18:14.737Z,20.47
2017-06-05T01:20:43.025Z,19.23
2017-06-05T01:23:11.299Z,17.67
2017-06-05T01:25:39.529Z,18.47
2017-06-05T01:28:07.820Z,18.33
2017-06-05T01:30:36.824Z,16.40
2017-06-05T01:33:05.836Z,17.00
2017-06-05T01:35:34.106Z,15.10
2017-06-05T01:38:02.331Z,14.60
2017-06-05T01:40:30.559Z,14.43
2017-06-05T01:42:58.837Z,14.60
2017-06-05T01:45:27.070Z,11.43
2017-06-05T01:47:55.381Z,11.67
2017-06-05T01:50:23.649Z,14.77
2017-06-05T01:52:52.020Z,14.37
2017-06-05T01:55:21.010Z,11.73
2017-06-05T01:57:50.082Z,10.77
2017-06-05T02:00:18.393Z,11.40
2017-06-05T02:03:16.841Z,12.53
2017-06-05T02:05:45.072Z,10.07
2017-06-05T02:08:13.293Z,11.07
2017-06-05T02:13:42.254Z,10.20
2017-06-05T02:16:18.627Z,10.20
2017-06-05T02:18:46.886Z,12.47
2017-06-05T02:21:15.119Z,13.63
2017-06-05T02:23:43.345Z,15.23
2017-06-05T02:26:11.610Z,13.07
2017-06-05T02:28:39.837Z,16.20
2017-06-05T02:31:18.615Z,12.80
2017-06-05T02:33:46.834Z,12.87
2017-06-05T02:36:15.052Z,8.43
2017-06-05T02:41:43.973Z,12.33
2017-06-05T02:44:18.727Z,12.30
2017-06-05T02:46:47.070Z,12.13
2017-06-05T02:49:15.340Z,9.30
2017-06-05T02:51:43.566Z,6.40
2017-06-05T02:54:12.027Z,7.23
2017-06-05T02:56:40.258Z,5.57
2017-06-05T02:59:18.583Z,6.00
2017-06-05T03:01:46.804Z,7.43
2017-06-05T03:04:15.025Z,7.47
2017-06-05T03:09:43.221Z,4.77
2017-06-05T03:12:11.470Z,4.83
2017-06-05T03:14:40.463Z,6.30
2017-06-05T03:17:09.496Z,4.93
2017-06-05T03:19:37.714Z,5.30
2017-06-05T03:22:05.946Z,4.40
2017-06-05T03:24:34.212Z,5.10
2017-06-05T03:27:17.679Z,4.77
2017-06-05T03:29:45.945Z,5.07
2017-06-05T03:32:14.170Z,4.43
2017-06-05T03:34:43.191Z,5.57
2017-06-05T03:37:11.449Z,4.47
2017-06-05T03:39:40.418Z,4.90
2017-06-05T03:42:08.634Z,4.93
2017-06-05T03:44:36.914Z,4.70
2017-06-05T03:47:05.159Z,4.50
2017-06-05T03:49:33.614Z,9.90
2017-06-05T03:52:01.926Z,5.27
2017-06-05T03:57:31.089Z,12.23
2017-06-05T03:59:59.315Z,13.07
2017-06-05T04:02:27.545Z,16.60
2017-06-05T04:04:55.854Z,17.67
2017-06-05T04:07:24.871Z,15.37
2017-06-05T04:09:53.096Z,7.10
2017-06-05T04:12:21.358Z,12.50
2017-06-05T04:14:49.595Z,11.00
2017-06-05T04:17:17.850Z,19.07
2017-06-05T04:19:46.121Z,16.20
2017-06-05T04:22:14.522Z,10.80
2017-06-05T04:24:42.736Z,5.70
2017-06-05T04:27:11.016Z,8.60
2017-06-05T04:29:39.247Z,16.80
2017-06-05T04:32:07.482Z,16.50
2017-06-05T04:34:35.758Z,18.33
2017-06-05T04:37:04.078Z,13.80
2017-06-05T04:39:32.316Z,15.50
2017-06-05T04:42:01.345Z,11.63
2017-06-05T04:44:29.638Z,10.40
2017-06-05T04:46:57.897Z,10.50
2017-06-05T04:49:26.171Z,10.83
2017-06-05T04:51:54.426Z,11.03
2017-06-05T04:54:22.718Z,10.90
2017-06-05T04:56:51.034Z,10.07
2017-06-05T04:59:19.413Z,8.13
2017-06-05T05:01:47.650Z,8.70
2017-06-05T05:04:15.934Z,10.20
2017-06-05T05:06:44.163Z,9.10
2017-06-05T05:09:12.474Z,9.07
2017-06-05T05:11:40.738Z,9.10
2017-06-05T05:14:09.721Z,7.70
2017-06-05T05:16:38.707Z,8.53
2017-06-05T05:19:07.806Z,6.90
2017-06-05T05:21:36.832Z,7.57
2017-06-05T05:24:05.058Z,6.93
2017-06-05T05:26:33.322Z,7.30
2017-06-05T05:29:01.542Z,7.73
2017-06-05T05:31:29.781Z,8.00
2017-06-05T05:33:58.034Z,7.13
2017-06-05T05:36:26.279Z,7.27
2017-06-05T05:39:17.598Z,7.07
2017-06-05T05:41:45.823Z,7.30
2017-06-05T05:44:14.051Z,7.57
2017-06-05T05:46:42.312Z,8.43
2017-06-05T05:49:10.532Z,6.63
2017-06-05T05:51:38.756Z,6.40
2017-06-05T05:54:19.917Z,6.43
2017-06-05T05:56:49.331Z,5.07
2017-06-05T05:59:17.562Z,4.43
2017-06-05T06:01:46.008Z,4.50
2017-06-05T06:04:14.277Z,4.47
2017-06-05T06:09:43.231Z,4.87
2017-06-05T06:12:11.520Z,4.40
2017-06-05T06:14:40.548Z,5.33
2017-06-05T06:17:08.811Z,5.80
2017-06-05T06:19:37.247Z,5.00
2017-06-05T06:22:18.397Z,3.97
2017-06-05T06:24:46.653Z,4.33
2017-06-05T06:27:14.926Z,4.50
2017-06-05T06:32:43.449Z,4.47
2017-06-05T06:35:17.925Z,7.40
2017-06-05T06:38:16.663Z,4.10
2017-06-05T06:43:22.316Z,5.37
2017-06-05T06:45:56.315Z,4.70
2017-06-05T06:48:24.529Z,4.77
2017-06-05T06:51:19.152Z,4.80
2017-06-05T06:53:48.202Z,4.23
2017-06-05T06:56:20.808Z,4.37
2017-06-05T06:59:17.091Z,3.60
2017-06-05T07:05:16.741Z,4.37
2017-06-05T07:16:35.531Z,3.47
2017-06-05T07:19:17.721Z,3.40
2017-06-05T07:30:34.644Z,3.70
2017-06-05T07:33:17.486Z,3.50
2017-06-05T07:36:17.314Z,3.17
2017-06-05T07:41:19.673Z,3.70
2017-06-05T07:44:18.028Z,3.63
2017-06-05T07:47:16.946Z,3.10
2017-06-05T07:49:45.224Z,3.20
2017-06-05T07:52:19.873Z,3.50
2017-06-05T07:54:48.914Z,2.80
2017-06-05T07:57:18.372Z,3.23
2017-06-05T07:59:47.360Z,3.60
2017-06-05T08:02:16.399Z,2.90
2017-06-05T08:04:44.643Z,3.50
2017-06-05T08:07:12.863Z,3.60
2017-06-05T08:09:41.119Z,3.63
2017-06-05T08:12:09.423Z,4.20
2017-06-05T08:17:37.876Z,3.10
2017-06-05T08:20:18.850Z,3.43
2017-06-05T08:22:47.141Z,2.30
2017-06-05T08:25:18.273Z,2.53
2017-06-05T08:27:46.549Z,2.90
2017-06-05T08:30:15.467Z,3.87
2017-06-05T08:32:43.682Z,3.33
2017-06-05T08:35:12.723Z,3.63
2017-06-05T08:37:40.950Z,2.60
2017-06-05T08:40:17.882Z,2.87
2017-06-05T08:42:46.114Z,2.87
2017-06-05T08:45:14.367Z,2.90
2017-06-05T08:47:43.502Z,2.93
2017-06-05T08:50:11.721Z,3.73
2017-06-05T08:52:39.980Z,3.40
2017-06-05T08:55:08.226Z,2.67
2017-06-05T08:57:36.452Z,3.13
2017-06-05T09:00:05.394Z,3.10
2017-06-05T09:08:35.986Z,3.47
2017-06-05T09:14:26.532Z,2.80
2017-06-05T09:17:03.363Z,2.60
2017-06-05T09:22:56.492Z,3.53
2017-06-05T09:28:25.374Z,2.90
2017-06-05T09:36:54.803Z,2.30
2017-06-05T09:42:35.801Z,2.30
2017-06-05T09:48:18.296Z,1.80
2017-06-05T09:59:53.276Z,2.20
2017-06-05T10:14:25.397Z,2.73
2017-06-05T10:16:53.663Z,2.03
2017-06-05T10:19:21.885Z,2.60
2017-06-05T10:22:09.461Z,2.70
2017-06-05T10:24:37.681Z,2.70
2017-06-05T10:27:18.973Z,2.23
2017-06-05T10:29:47.209Z,1.80
2017-06-05T10:32:19.947Z,2.63
2017-06-05T10:34:48.197Z,2.80
2017-06-05T10:37:16.463Z,2.40
2017-06-05T10:39:44.748Z,2.37
2017-06-05T10:42:12.963Z,2.13
2017-06-05T10:47:41.767Z,2.40
2017-06-05T10:50:10.029Z,2.43
2017-06-05T10:52:38.268Z,2.60
2017-06-05T10:55:06.498Z,2.33
2017-06-05T10:57:34.756Z,2.10
2017-06-05T11:00:17.983Z,2.03
2017-06-05T11:03:01.578Z,2.40
2017-06-05T11:08:19.606Z,1.97
2017-06-05T11:11:17.760Z,2.33
2017-06-05T11:14:00.398Z,2.30
2017-06-05T11:23:01.260Z,2.77
2017-06-05T11:25:33.370Z,2.33
2017-06-05T11:28:18.513Z,2.70
2017-06-05T11:34:06.562Z,3.17
2017-06-05T11:42:36.595Z,2.70
2017-06-05T11:45:18.049Z,2.73
2017-06-05T11:48:16.893Z,2.50
2017-06-05T11:51:11.661Z,3.17
2017-06-05T11:54:04.027Z,2.80
2017-06-05T12:02:36.678Z,2.77
2017-06-05T12:05:17.761Z,3.00
2017-06-05T12:14:06.792Z,2.50
2017-06-05T12:22:19.101Z,2.50
2017-06-05T12:24:47.333Z,3.07
2017-06-05T12:27:19.194Z,2.97
2017-06-05T12:30:02.208Z,3.03
2017-06-05T12:32:30.569Z,2.57
2017-06-05T12:35:18.581Z,2.50
2017-06-05T12:58:42.186Z,2.97
2017-06-05T13:01:10.455Z,3.73
2017-06-05T13:03:38.789Z,4.13
2017-06-05T13:06:20.349Z,4.00
2017-06-05T13:14:50.453Z,3.70
2017-06-05T13:17:18.753Z,2.80
2017-06-05T13:26:18.534Z,3.17
2017-06-05T13:28:46.808Z,2.47
2017-06-05T13:43:18.357Z,2.53
2017-06-05T13:45:59.242Z,1.80
2017-06-05T13:48:28.232Z,2.03
2017-06-05T13:51:09.302Z,2.50
2017-06-05T13:53:37.549Z,1.93
2017-06-05T13:56:05.814Z,2.27
2017-06-05T13:58:35.247Z,2.00
2017-06-05T14:01:03.490Z,1.80
2017-06-05T14:03:31.749Z,1.90
2017-06-05T14:06:19.992Z,1.80
2017-06-05T14:09:17.874Z,1.80
2017-06-05T14:15:17.653Z,2.40
2017-06-05T14:17:45.893Z,2.10
2017-06-05T14:20:14.123Z,2.00
2017-06-05T14:22:43.381Z,2.30
2017-06-05T14:25:24.772Z,1.77
2017-06-05T14:27:53.002Z,1.83
2017-06-05T14:30:21.229Z,2.00
2017-06-05T14:36:07.634Z,1.63
2017-06-05T14:41:33.750Z,2.33
2017-06-05T14:44:01.968Z,1.73
2017-06-05T14:46:30.181Z,1.57
2017-06-05T14:48:58.492Z,1.70
2017-06-05T14:51:26.701Z,1.40
2017-06-05T14:53:54.920Z,1.67
2017-06-05T14:56:23.186Z,1.50
2017-06-05T14:58:51.416Z,1.50
2017-06-05T15:01:19.654Z,1.80
2017-06-05T15:04:00.311Z,1.73
2017-06-05T15:06:28.532Z,1.80
2017-06-05T15:08:56.833Z,1.60
2017-06-05T15:11:25.864Z,1.60
2017-06-05T15:13:54.121Z,1.70
2017-06-05T15:16:22.344Z,1.30
2017-06-05T15:18:50.571Z,1.40
2017-06-05T15:23:56.144Z,1.83
2017-06-05T15:26:24.390Z,1.67
2017-06-05T15:29:19.558Z,1.97
2017-06-05T15:31:47.793Z,1.80
2017-06-05T15:34:16.038Z,1.60
2017-06-05T15:36:45.059Z,1.73
2017-06-05T15:39:19.510Z,1.40
2017-06-05T15:41:47.759Z,1.93
2017-06-05T15:44:15.979Z,1.63
2017-06-05T15:46:44.251Z,1.67
2017-06-05T15:49:19.239Z,1.60
2017-06-05T15:51:47.482Z,1.70
2017-06-05T15:54:16.480Z,1.43
2017-06-05T15:56:45.502Z,1.60
2017-06-05T15:59:13.772Z,1.70
2017-06-05T16:01:42.046Z,1.53
2017-06-05T16:04:10.739Z,1.73
2017-06-05T16:06:51.556Z,1.50
2017-06-05T16:09:19.778Z,1.80
2017-06-05T16:11:48.017Z,1.80
2017-06-05T16:14:17.049Z,1.90
2017-06-05T16:16:45.337Z,1.63
2017-06-05T16:19:13.563Z,1.70
2017-06-05T16:21:41.773Z,1.63
2017-06-05T16:24:10.045Z,1.90
2017-06-05T16:26:38.273Z,1.60
2017-06-05T16:29:19.244Z,1.70
2017-06-05T16:31:47.471Z,2.40
2017-06-05T16:34:15.687Z,1.80
2017-06-05T16:36:43.950Z,2.00
2017-06-05T16:39:12.161Z,2.10
2017-06-05T16:41:41.144Z,1.50
2017-06-05T16:44:09.460Z,1.50
2017-06-05T16:46:37.671Z,2.00
2017-06-05T16:49:18.641Z,1.80
2017-06-05T16:52:17.445Z,2.03
2017-06-05T16:54:45.725Z,1.50
2017-06-05T16:57:13.945Z,1.80
2017-06-05T17:02:43.067Z,1.63
2017-06-05T17:05:18.269Z,1.80
2017-06-05T17:07:47.400Z,1.93
2017-06-05T17:10:15.654Z,1.80
2017-06-05T17:12:44.648Z,1.87
2017-06-05T17:15:12.920Z,2.00
2017-06-05T17:17:41.925Z,1.87
2017-06-05T17:20:18.341Z,2.30
2017-06-05T17:22:46.575Z,1.73
2017-06-05T17:25:14.842Z,1.70
2017-06-05T17:34:07.571Z,2.10
2017-06-05T17:36:36.545Z,1.83
2017-06-05T17:39:04.770Z,2.07
2017-06-05T17:41:33.174Z,1.93
2017-06-05T17:44:02.149Z,1.60
2017-06-05T17:46:31.167Z,2.10
2017-06-05T17:48:59.429Z,1.70
2017-06-05T17:51:29.281Z,1.93
2017-06-05T17:53:58.714Z,1.77
2017-06-05T17:56:26.986Z,2.07
2017-06-05T17:59:18.852Z,1.87
2017-06-05T18:01:47.129Z,1.70
2017-06-05T18:04:15.409Z,1.97
2017-06-05T18:06:43.633Z,2.10
2017-06-05T18:09:11.905Z,1.27
2017-06-05T18:11:40.126Z,2.10
2017-06-05T18:14:08.337Z,2.07
2017-06-05T18:16:36.790Z,1.50
2017-06-05T18:19:05.050Z,1.53
2017-06-05T18:21:33.279Z,1.57
2017-06-05T18:33:18.186Z,1.97
2017-06-05T18:35:46.468Z,1.63
2017-06-05T18:38:14.674Z,2.27
2017-06-05T18:40:42.890Z,2.30
2017-06-05T18:43:19.055Z,2.30
2017-06-05T18:45:47.279Z,2.23
2017-06-05T18:48:15.515Z,1.90
2017-06-05T18:50:43.775Z,1.80
2017-06-05T18:53:18.619Z,2.20
2017-06-05T18:55:46.874Z,1.60
2017-06-05T18:58:20.987Z,2.00
2017-06-05T19:00:49.201Z,2.73
2017-06-05T19:06:18.803Z,2.30
2017-06-05T19:08:53.571Z,2.60
2017-06-05T19:11:21.825Z,2.40
2017-06-05T19:13:50.752Z,2.33
2017-06-05T19:16:19.879Z,2.30
2017-06-05T19:18:48.116Z,2.20
2017-06-05T19:21:19.697Z,2.33
2017-06-05T19:23:47.995Z,2.70
2017-06-05T19:26:19.214Z,2.60
2017-06-05T19:28:47.606Z,3.50
2017-06-05T19:31:15.967Z,3.70
2017-06-05T19:33:44.956Z,4.00
2017-06-05T19:36:13.983Z,3.37
2017-06-05T19:38:42.275Z,3.70
2017-06-05T19:41:10.551Z,4.43
2017-06-05T19:43:38.829Z,3.20
2017-06-05T19:46:20.077Z,3.07
2017-06-05T19:49:17.897Z,3.80
2017-06-05T19:51:46.142Z,3.57
2017-06-05T19:54:20.512Z,3.40
2017-06-05T19:56:54.231Z,3.23
2017-06-05T19:59:23.348Z,3.30
2017-06-05T20:01:51.570Z,4.13
2017-06-05T20:07:20.325Z,3.73
2017-06-05T20:09:48.536Z,3.70
2017-06-05T20:12:16.754Z,3.23
2017-06-05T20:14:45.017Z,3.30
2017-06-05T20:17:20.108Z,3.70
2017-06-05T20:19:48.361Z,3.20
2017-06-05T20:22:16.585Z,4.30
2017-06-05T20:24:44.828Z,3.80
2017-06-05T20:27:13.099Z,3.10
2017-06-05T20:29:41.321Z,3.50
2017-06-05T20:32:10.314Z,3.50
2017-06-05T20:34:39.442Z,4.67
2017-06-05T20:37:07.663Z,3.90
2017-06-05T20:39:35.888Z,4.23
2017-06-05T20:42:04.150Z,4.20
2017-06-05T20:44:32.424Z,3.40
2017-06-05T20:47:00.665Z,3.60
2017-06-05T20:49:28.953Z,4.00
2017-06-05T20:51:57.189Z,3.60
2017-06-05T20:54:26.541Z,3.33
2017-06-05T20:56:55.578Z,3.80
2017-06-05T20:59:23.859Z,4.23
2017-06-05T21:01:52.120Z,4.57
2017-06-05T21:04:20.383Z,4.00
2017-06-05T21:06:48.671Z,3.23
2017-06-05T21:09:20.460Z,3.90
2017-06-05T21:11:48.693Z,3.77
2017-06-05T21:14:16.913Z,3.80
2017-06-05T21:16:45.199Z,4.50
2017-06-05T21:19:13.519Z,4.27
2017-06-05T21:21:41.728Z,3.20
2017-06-05T21:24:10.076Z,2.80
2017-06-05T21:26:38.316Z,3.90
2017-06-05T21:29:17.389Z,3.90
2017-06-05T21:34:47.617Z,4.43
2017-06-05T21:37:15.886Z,3.97
2017-06-05T21:39:44.148Z,4.10
2017-06-05T21:42:13.181Z,4.20
2017-06-05T21:44:41.388Z,4.50
2017-06-05T21:47:09.617Z,3.87
2017-06-05T21:49:37.889Z,4.13
2017-06-05T21:52:06.158Z,3.70
2017-06-05T21:54:34.374Z,3.90
2017-06-05T21:57:19.920Z,3.90
2017-06-05T21:59:48.308Z,3.90
2017-06-05T22:02:16.581Z,4.07
2017-06-05T22:04:44.947Z,3.60
2017-06-05T22:07:13.176Z,3.50
2017-06-05T22:09:41.404Z,4.90
2017-06-05T22:12:09.769Z,4.17
2017-06-05T22:14:38.002Z,3.60
2017-06-05T22:17:06.225Z,4.00
2017-06-05T22:19:34.499Z,4.30
2017-06-05T22:22:19.596Z,3.60
2017-06-05T22:25:17.801Z,3.23
2017-06-05T22:27:46.569Z,3.17
2017-06-05T22:30:14.786Z,3.43
2017-06-05T22:32:43.824Z,3.03
2017-06-05T22:35:12.033Z,3.30
2017-06-05T22:37:40.245Z,3.63
2017-06-05T22:40:08.522Z,4.23
2017-06-05T22:48:37.010Z,3.10
2017-06-05T22:51:19.766Z,3.57
2017-06-05T22:53:48.129Z,3.60
2017-06-05T22:56:20.181Z,3.63
2017-06-05T22:58:49.224Z,2.87
2017-06-05T23:01:17.441Z,6.07
2017-06-05T23:03:46.416Z,4.00
2017-06-05T23:06:14.729Z,4.27
2017-06-05T23:11:43.101Z,5.03
2017-06-05T23:14:12.099Z,4.87
2017-06-05T23:16:41.091Z,3.90
2017-06-05T23:19:19.832Z,4.53
2017-06-05T23:21:48.113Z,4.47
2017-06-05T23:24:16.340Z,4.63
2017-06-05T23:26:44.594Z,5.53
2017-06-05T23:29:12.820Z,4.20
2017-06-05T23:31:41.042Z,5.10
2017-06-05T23:34:19.178Z,4.27
2017-06-05T23:36:47.402Z,5.37
2017-06-05T23:39:15.705Z,4.93
2017-06-05T23:41:43.973Z,4.10
2017-06-05T23:44:12.218Z,4.73
2017-06-05T23:46:40.490Z,5.40
2017-06-05T23:49:08.748Z,5.07
2017-06-05T23:54:21.771Z,4.70
2017-06-05T23:56:50.775Z,4.17
2017-06-05T23:59:19.766Z,4.30
